Lake Crescent, Washington
Current Conditions -  °F | °C
As of 4:53 AM on Sunday 21 Dec 2014 (Local Time) from KCLM Reporting Station
Few Clouds Few Clouds  
Wind Chill: 49°   Ceiling: Unl
Heat Index: 49°   Visibility: 10mi
Dew Point: 44°   Wind: 3mph
Humidity: 83%   Direction: 230°SW
Pressure: 29.73"   Gusts: NA
Location:  48.0203°N, 123.478°W
Report Text: KCLM 211253Z AUTO 23003KT 10SM FEW065 09/07 A2973 RMK AO2 SLP067 T00940067 TSNO $
Loading
Personal Weather Stations






























Interactive Weather Map New forecast layout! Learn more

10-Day Weather Forecast

Advertisements
Track Severe Weather on mobile